Time;durP1;ratioP1;P1;durP2;ratioP2;P2;SDS_P1;SDS_P2;PMS_P1;PMS_P2;Temp;Humidity;BMP_temperature;BMP_pressure;BME280_temperature;BME280_humidity;BME280_pressure;Samples;Min_cycle;Max_cycle;Signal;HPM_P1;HPM_P2
2021/08/10 00:01:08;;;;;;;3.20;1.98;;;;;;;;;;4994035;28;20064;-57
2021/08/10 00:03:36;;;;;;;4.50;1.88;;;;;;;;;;4992830;28;20157;-56
2021/08/10 00:06:01;;;;;;;5.50;2.55;;;;;;;;;;4993605;28;20018;-56
2021/08/10 00:08:26;;;;;;;5.03;1.87;;;;;;;;;;4994130;28;20025;-60
2021/08/10 00:10:56;;;;;;;5.07;2.00;;;;;;;;;;4994034;28;20748;-61
2021/08/10 00:13:25;;;;;;;3.33;1.77;;;;;;;;;;4992855;28;20277;-61
2021/08/10 00:16:03;;;;;;;4.90;2.05;;;;;;;;;;4993434;28;20094;-61
2021/08/10 00:18:28;;;;;;;2.00;1.80;;;;;;;;;;4992797;28;20113;-59
2021/08/10 00:20:55;;;;;;;4.20;2.00;;;;;;;;;;4993660;28;20597;-61
2021/08/10 00:23:24;;;;;;;4.60;2.00;;;;;;;;;;4992649;28;20034;-61
2021/08/10 00:25:51;;;;;;;4.45;2.33;;;;;;;;;;4993262;28;20104;-59
2021/08/10 00:28:22;;;;;;;4.60;2.03;;;;;;;;;;4993492;28;20034;-61
2021/08/10 00:30:55;;;;;;;2.85;2.00;;;;;;;;;;4985334;28;20477;-58
2021/08/10 00:33:44;;;;;;;3.63;1.92;;;;;;;;;;4974353;28;20389;-59
2021/08/10 00:36:13;;;;;;;3.53;2.20;;;;;;;;;;4973723;28;20425;-59
2021/08/10 00:38:41;;;;;;;3.55;2.03;;;;;;;;;;4990179;28;20058;-56
2021/08/10 00:41:10;;;;;;;3.33;2.13;;;;;;;;;;4993564;28;20019;-60
2021/08/10 00:43:48;;;;;;;4.82;2.17;;;;;;;;;;4993656;28;20046;-57
2021/08/10 00:46:14;;;;;;;3.75;2.03;;;;;;;;;;4993340;28;20389;-61
2021/08/10 00:48:41;;;;;;;3.58;1.98;;;;;;;;;;4993425;28;20030;-58
2021/08/10 00:51:08;;;;;;;3.30;2.30;;;;;;;;;;4993240;28;20018;-58
2021/08/10 00:53:41;;;;;;;2.63;1.92;;;;;;;;;;4993266;28;20101;-58
2021/08/10 00:56:15;;;;;;;3.00;2.15;;;;;;;;;;4991643;28;20413;-59
2021/08/10 00:58:42;;;;;;;4.60;2.17;;;;;;;;;;4991979;28;20057;-58
2021/08/10 01:01:11;;;;;;;3.90;2.72;;;;;;;;;;4993083;28;20026;-60
2021/08/10 01:03:36;;;;;;;5.85;2.30;;;;;;;;;;4993014;28;20026;-61
2021/08/10 01:06:14;;;;;;;4.87;2.20;;;;;;;;;;4992606;28;20496;-61
2021/08/10 01:08:58;;;;;;;4.60;2.28;;;;;;;;;;4993087;28;20385;-58
2021/08/10 01:11:37;;;;;;;3.72;2.15;;;;;;;;;;4991638;28;20015;-59
2021/08/10 01:14:10;;;;;;;3.85;2.30;;;;;;;;;;4992846;28;20417;-61
2021/08/10 01:16:38;;;;;;;2.53;2.15;;;;;;;;;;4991917;28;20389;-59
2021/08/10 01:19:34;;;;;;;3.75;2.30;;;;;;;;;;4992884;28;20034;-60
2021/08/10 01:22:03;;;;;;;5.03;2.50;;;;;;;;;;4992213;28;20050;-60
2021/08/10 01:24:36;;;;;;;5.75;2.40;;;;;;;;;;4992584;28;20034;-60
2021/08/10 01:27:07;;;;;;;2.85;1.90;;;;;;;;;;4992177;28;20084;-61
2021/08/10 01:29:37;;;;;;;5.78;2.60;;;;;;;;;;4992626;28;20026;-59
2021/08/10 01:32:03;;;;;;;2.78;2.08;;;;;;;;;;4992579;28;20022;-61
2021/08/10 01:34:31;;;;;;;4.45;2.30;;;;;;;;;;4992483;28;20544;-61
2021/08/10 01:37:01;;;;;;;5.05;2.58;;;;;;;;;;4992079;28;20109;-61
2021/08/10 01:39:27;;;;;;;2.72;2.00;;;;;;;;;;4992470;28;20015;-61
2021/08/10 01:41:53;;;;;;;4.88;2.40;;;;;;;;;;4992645;28;20106;-61
2021/08/10 01:44:25;;;;;;;2.90;2.60;;;;;;;;;;4992463;28;20101;-61
2021/08/10 01:46:54;;;;;;;3.08;2.53;;;;;;;;;;4990635;28;20175;-58
2021/08/10 01:49:26;;;;;;;4.93;2.47;;;;;;;;;;4992259;28;20018;-57
2021/08/10 01:51:52;;;;;;;3.47;2.30;;;;;;;;;;4992167;28;20358;-60
2021/08/10 01:54:17;;;;;;;3.70;2.30;;;;;;;;;;4992380;28;20457;-53
2021/08/10 01:56:43;;;;;;;3.83;2.60;;;;;;;;;;4991889;28;20022;-57
2021/08/10 01:59:09;;;;;;;3.58;2.40;;;;;;;;;;4992326;28;20026;-61
2021/08/10 02:01:43;;;;;;;3.03;2.05;;;;;;;;;;4992122;28;20063;-60
2021/08/10 02:04:09;;;;;;;3.55;2.10;;;;;;;;;;4992022;28;20034;-61
2021/08/10 02:06:37;;;;;;;6.82;2.42;;;;;;;;;;4990541;28;20027;-60
2021/08/10 02:09:10;;;;;;;2.75;2.20;;;;;;;;;;4992084;28;20026;-61
2021/08/10 02:11:41;;;;;;;3.73;2.10;;;;;;;;;;4992041;28;20069;-60
2021/08/10 02:14:08;;;;;;;4.05;2.35;;;;;;;;;;4992067;28;20242;-61
2021/08/10 02:16:33;;;;;;;3.85;2.33;;;;;;;;;;4991540;28;20026;-60
2021/08/10 02:18:58;;;;;;;2.95;2.33;;;;;;;;;;4992062;28;20377;-61
2021/08/10 02:21:32;;;;;;;4.20;2.60;;;;;;;;;;4991635;28;20104;-59
2021/08/10 02:24:07;;;;;;;2.92;2.33;;;;;;;;;;4990879;28;20327;-61
2021/08/10 02:26:37;;;;;;;4.78;2.40;;;;;;;;;;4990593;28;20122;-60
2021/08/10 02:29:04;;;;;;;3.58;2.08;;;;;;;;;;4992476;28;20066;-61
2021/08/10 02:31:33;;;;;;;4.25;2.42;;;;;;;;;;4995861;28;20508;-59
2021/08/10 02:33:58;;;;;;;3.40;2.45;;;;;;;;;;4995803;28;20014;-61
2021/08/10 02:36:24;;;;;;;3.45;2.60;;;;;;;;;;4995693;28;20165;-60
2021/08/10 02:38:49;;;;;;;3.78;2.38;;;;;;;;;;4995751;28;20023;-59
2021/08/10 02:41:16;;;;;;;4.78;2.30;;;;;;;;;;4995708;28;20030;-58
2021/08/10 02:43:47;;;;;;;6.25;2.33;;;;;;;;;;4995684;28;20073;-60
2021/08/10 02:46:12;;;;;;;3.42;2.10;;;;;;;;;;4994087;28;20041;-59
2021/08/10 02:48:37;;;;;;;2.97;2.25;;;;;;;;;;4995481;28;20109;-58
2021/08/10 02:51:02;;;;;;;2.60;2.40;;;;;;;;;;4995528;28;20014;-52
2021/08/10 02:53:31;;;;;;;4.00;2.73;;;;;;;;;;4994154;28;20026;-59
2021/08/10 02:56:12;;;;;;;10.48;2.45;;;;;;;;;;4993843;28;20270;-60
2021/08/10 02:58:56;;;;;;;3.70;2.67;;;;;;;;;;4994055;28;20486;-55
2021/08/10 03:01:40;;;;;;;3.97;2.40;;;;;;;;;;4995342;28;20030;-53
2021/08/10 03:04:05;;;;;;;3.40;2.08;;;;;;;;;;4995196;28;20027;-54
2021/08/10 03:06:31;;;;;;;2.80;2.20;;;;;;;;;;4994705;28;20114;-54
2021/08/10 03:09:03;;;;;;;3.85;2.75;;;;;;;;;;4995207;28;20378;-53
2021/08/10 03:11:38;;;;;;;3.97;2.53;;;;;;;;;;4995136;28;20158;-58
2021/08/10 03:14:03;;;;;;;3.55;2.50;;;;;;;;;;4995489;28;20045;-57
2021/08/10 03:16:30;;;;;;;5.90;2.40;;;;;;;;;;4994539;28;20097;-61
2021/08/10 03:18:58;;;;;;;4.32;2.72;;;;;;;;;;4995044;28;20026;-59
2021/08/10 03:21:23;;;;;;;4.80;2.17;;;;;;;;;;4993358;28;20505;-58
2021/08/10 03:23:54;;;;;;;15.30;2.80;;;;;;;;;;4995026;28;20029;-59
2021/08/10 03:26:23;;;;;;;3.42;2.70;;;;;;;;;;4994448;28;20034;-61
2021/08/10 03:28:52;;;;;;;4.32;2.38;;;;;;;;;;4994757;28;20031;-61
2021/08/10 03:31:17;;;;;;;2.67;2.28;;;;;;;;;;5003176;28;20569;-59
2021/08/10 03:33:46;;;;;;;3.75;2.15;;;;;;;;;;4975282;28;20082;-60
2021/08/10 03:36:20;;;;;;;3.25;2.40;;;;;;;;;;4992707;28;20033;-61
2021/08/10 03:38:46;;;;;;;8.85;2.67;;;;;;;;;;4993406;28;20046;-58
2021/08/10 03:41:14;;;;;;;5.60;2.58;;;;;;;;;;4994351;28;20108;-59
2021/08/10 03:43:42;;;;;;;5.13;2.72;;;;;;;;;;4994634;28;20116;-59
2021/08/10 03:46:10;;;;;;;9.00;2.53;;;;;;;;;;4994047;28;20031;-61
2021/08/10 03:48:42;;;;;;;5.03;2.45;;;;;;;;;;4994281;28;20069;-61
2021/08/10 03:51:08;;;;;;;4.00;2.80;;;;;;;;;;4994469;28;20505;-59
2021/08/10 03:53:36;;;;;;;5.65;2.60;;;;;;;;;;4993117;28;20030;-55
2021/08/10 03:56:12;;;;;;;5.30;2.20;;;;;;;;;;4992672;28;20061;-53
2021/08/10 03:58:38;;;;;;;3.28;2.60;;;;;;;;;;4992983;28;20026;-57
2021/08/10 04:01:05;;;;;;;3.92;2.63;;;;;;;;;;4994135;28;20436;-58
2021/08/10 04:03:31;;;;;;;4.05;2.67;;;;;;;;;;4994118;28;20022;-54
2021/08/10 04:06:00;;;;;;;3.38;2.55;;;;;;;;;;4993835;28;20026;-53
2021/08/10 04:08:29;;;;;;;5.05;2.85;;;;;;;;;;4994069;28;20023;-61
2021/08/10 04:10:57;;;;;;;4.32;3.00;;;;;;;;;;4994015;28;20018;-55
2021/08/10 04:13:24;;;;;;;3.25;2.85;;;;;;;;;;4994019;28;20201;-58
2021/08/10 04:15:50;;;;;;;6.55;3.15;;;;;;;;;;4993587;28;20014;-57
2021/08/10 04:18:16;;;;;;;4.43;2.88;;;;;;;;;;4992635;28;20026;-61
2021/08/10 04:20:48;;;;;;;5.30;3.45;;;;;;;;;;4992705;28;20026;-58
2021/08/10 04:23:13;;;;;;;3.50;2.78;;;;;;;;;;4993064;28;20074;-59
2021/08/10 04:25:39;;;;;;;5.68;2.83;;;;;;;;;;4980571;28;20035;-61
2021/08/10 04:28:04;;;;;;;3.03;2.63;;;;;;;;;;4993937;28;20046;-61
2021/08/10 04:30:32;;;;;;;4.38;2.97;;;;;;;;;;4994386;28;20473;-61
2021/08/10 04:32:57;;;;;;;14.40;3.00;;;;;;;;;;4994343;28;20026;-61
2021/08/10 04:35:23;;;;;;;4.40;2.80;;;;;;;;;;4973802;28;20029;-61
2021/08/10 04:37:51;;;;;;;6.50;2.75;;;;;;;;;;4980161;28;20478;-61
2021/08/10 04:40:17;;;;;;;4.82;2.85;;;;;;;;;;4994025;28;20481;-61
2021/08/10 04:42:42;;;;;;;4.77;3.13;;;;;;;;;;4992995;28;20124;-61
2021/08/10 04:45:07;;;;;;;7.83;3.07;;;;;;;;;;4992936;28;20261;-59
2021/08/10 04:47:36;;;;;;;4.35;3.20;;;;;;;;;;4994067;28;20732;-60
2021/08/10 04:50:01;;;;;;;7.13;3.28;;;;;;;;;;4993057;28;20022;-61
2021/08/10 04:52:29;;;;;;;3.73;2.80;;;;;;;;;;4993171;28;20080;-60
2021/08/10 04:54:57;;;;;;;3.92;2.80;;;;;;;;;;4993939;28;20286;-60
2021/08/10 04:57:25;;;;;;;3.25;2.95;;;;;;;;;;4991500;28;20033;-60
2021/08/10 04:59:51;;;;;;;4.72;3.00;;;;;;;;;;4993090;28;20019;-60
2021/08/10 05:02:16;;;;;;;4.20;3.40;;;;;;;;;;4992762;28;20022;-61
2021/08/10 05:04:42;;;;;;;7.15;3.25;;;;;;;;;;4993016;28;20469;-61
2021/08/10 05:07:07;;;;;;;4.97;2.95;;;;;;;;;;4991239;28;20101;-61
2021/08/10 05:09:33;;;;;;;3.28;2.88;;;;;;;;;;4992884;28;20073;-61
2021/08/10 05:11:58;;;;;;;5.13;3.08;;;;;;;;;;4992794;28;20565;-61
2021/08/10 05:14:33;;;;;;;4.33;3.13;;;;;;;;;;4992838;28;20629;-61
2021/08/10 05:17:04;;;;;;;4.95;2.97;;;;;;;;;;4992399;28;20253;-61
2021/08/10 05:19:29;;;;;;;3.80;3.30;;;;;;;;;;4991457;28;20113;-61
2021/08/10 05:21:54;;;;;;;5.00;4.15;;;;;;;;;;4992272;28;20556;-60
2021/08/10 05:24:22;;;;;;;5.37;4.27;;;;;;;;;;4991344;28;20018;-60
2021/08/10 05:26:53;;;;;;;7.10;4.68;;;;;;;;;;4991078;28;20297;-60
2021/08/10 05:29:21;;;;;;;11.63;6.38;;;;;;;;;;4992389;28;20034;-60
2021/08/10 05:31:46;;;;;;;9.82;5.40;;;;;;;;;;4992304;28;20023;-60
2021/08/10 05:34:11;;;;;;;11.50;6.22;;;;;;;;;;4992683;28;20048;-60
2021/08/10 05:36:37;;;;;;;8.43;6.60;;;;;;;;;;4990886;28;20076;-61
2021/08/10 05:39:03;;;;;;;12.67;6.97;;;;;;;;;;4991405;28;20261;-59
2021/08/10 05:41:28;;;;;;;9.73;6.82;;;;;;;;;;4991202;28;20343;-60
2021/08/10 05:44:01;;;;;;;10.90;6.07;;;;;;;;;;4991258;28;20029;-60
2021/08/10 05:46:30;;;;;;;6.88;5.53;;;;;;;;;;4990752;28;20096;-60
2021/08/10 05:48:55;;;;;;;9.93;4.05;;;;;;;;;;4992251;28;20041;-60
2021/08/10 05:51:31;;;;;;;7.80;4.63;;;;;;;;;;4992219;28;20084;-61
2021/08/10 05:53:56;;;;;;;8.68;5.18;;;;;;;;;;4990689;28;20033;-60
2021/08/10 05:56:41;;;;;;;7.40;4.40;;;;;;;;;;4991626;28;20481;-60
2021/08/10 05:59:09;;;;;;;7.45;4.78;;;;;;;;;;4987383;28;20744;-61
2021/08/10 06:01:41;;;;;;;5.97;3.92;;;;;;;;;;4991620;28;20037;-60
2021/08/10 06:04:08;;;;;;;5.93;3.58;;;;;;;;;;4991839;28;20030;-61
2021/08/10 06:06:36;;;;;;;4.47;3.28;;;;;;;;;;4950212;28;20026;-63
2021/08/10 06:09:05;;;;;;;5.05;3.33;;;;;;;;;;4941643;28;74525;-61
2021/08/10 06:11:34;;;;;;;4.88;3.40;;;;;;;;;;4991706;28;20041;-61
2021/08/10 06:13:59;;;;;;;6.10;3.10;;;;;;;;;;4990552;28;20392;-61
2021/08/10 06:16:27;;;;;;;7.70;3.50;;;;;;;;;;4991718;28;20022;-61
2021/08/10 06:18:52;;;;;;;10.15;3.03;;;;;;;;;;4992052;28;20265;-61
2021/08/10 06:21:24;;;;;;;5.63;3.80;;;;;;;;;;4990212;28;20045;-62
2021/08/10 06:23:49;;;;;;;5.78;3.10;;;;;;;;;;4991823;28;20029;-62
2021/08/10 06:26:16;;;;;;;10.93;3.13;;;;;;;;;;4991330;28;20483;-62
2021/08/10 06:29:12;;;;;;;5.85;3.13;;;;;;;;;;4990361;28;20384;-62
2021/08/10 06:31:37;;;;;;;6.78;3.20;;;;;;;;;;4973350;28;20054;-61
2021/08/10 06:34:05;;;;;;;3.07;2.60;;;;;;;;;;4978359;28;20051;-62
2021/08/10 06:36:37;;;;;;;4.72;2.63;;;;;;;;;;4971720;28;20345;-61
2021/08/10 06:39:06;;;;;;;11.23;3.63;;;;;;;;;;4972098;28;20027;-62
2021/08/10 06:41:31;;;;;;;4.55;3.15;;;;;;;;;;4972110;28;20114;-60
2021/08/10 06:43:56;;;;;;;5.17;2.87;;;;;;;;;;4985263;28;20597;-61
2021/08/10 06:46:24;;;;;;;3.60;2.53;;;;;;;;;;4991165;28;20250;-61
2021/08/10 06:48:49;;;;;;;5.25;2.70;;;;;;;;;;4991322;28;20761;-62
2021/08/10 06:51:15;;;;;;;6.57;2.70;;;;;;;;;;4991466;28;20045;-62
2021/08/10 06:53:42;;;;;;;4.88;3.08;;;;;;;;;;4991502;28;20799;-61
2021/08/10 06:56:11;;;;;;;6.95;2.58;;;;;;;;;;4989862;28;20355;-62
2021/08/10 06:58:39;;;;;;;3.28;2.60;;;;;;;;;;4991391;28;20050;-62
2021/08/10 07:01:07;;;;;;;4.45;3.05;;;;;;;;;;4991333;28;20173;-62
2021/08/10 07:03:32;;;;;;;5.20;2.80;;;;;;;;;;4991350;28;20041;-62
2021/08/10 07:05:58;;;;;;;4.25;2.60;;;;;;;;;;4990894;28;20022;-62
2021/08/10 07:08:35;;;;;;;5.43;2.80;;;;;;;;;;4991271;28;20044;-62
2021/08/10 07:11:07;;;;;;;4.57;2.85;;;;;;;;;;4991260;28;20022;-62
2021/08/10 07:13:33;;;;;;;4.72;3.00;;;;;;;;;;4990230;28;20030;-62
2021/08/10 07:15:58;;;;;;;4.28;2.72;;;;;;;;;;4992777;28;20445;-62
2021/08/10 07:18:23;;;;;;;3.43;2.63;;;;;;;;;;4993668;28;20393;-62
2021/08/10 07:20:51;;;;;;;4.10;2.63;;;;;;;;;;4993423;28;20336;-62
2021/08/10 07:23:26;;;;;;;5.95;2.60;;;;;;;;;;4993461;28;20372;-62
2021/08/10 07:25:51;;;;;;;5.20;2.80;;;;;;;;;;4993455;28;20242;-62
2021/08/10 07:28:19;;;;;;;5.63;2.53;;;;;;;;;;4994303;28;20022;-62
2021/08/10 07:30:44;;;;;;;5.93;2.53;;;;;;;;;;4993226;28;20046;-62
2021/08/10 07:33:12;;;;;;;4.23;2.90;;;;;;;;;;4994591;28;20057;-62
2021/08/10 07:35:43;;;;;;;4.80;2.92;;;;;;;;;;4994635;28;20663;-62
2021/08/10 07:38:08;;;;;;;6.60;2.90;;;;;;;;;;4994100;28;20033;-62
2021/08/10 07:40:39;;;;;;;5.68;2.78;;;;;;;;;;4994516;28;20467;-62
2021/08/10 07:43:07;;;;;;;4.15;2.88;;;;;;;;;;4994401;28;20110;-62
2021/08/10 07:45:39;;;;;;;4.70;2.60;;;;;;;;;;4994825;28;20688;-62
2021/08/10 07:48:05;;;;;;;4.15;2.72;;;;;;;;;;4994137;28;20125;-64
2021/08/10 07:50:30;;;;;;;3.25;2.35;;;;;;;;;;4994714;28;20054;-62
2021/08/10 07:52:55;;;;;;;5.15;2.40;;;;;;;;;;4994359;28;20548;-62
2021/08/10 07:55:23;;;;;;;5.37;2.87;;;;;;;;;;4993101;28;20023;-62
2021/08/10 07:57:57;;;;;;;5.10;2.50;;;;;;;;;;4994005;28;20026;-62
2021/08/10 08:00:22;;;;;;;3.35;2.70;;;;;;;;;;4994235;28;20018;-62
2021/08/10 08:02:47;;;;;;;4.27;3.00;;;;;;;;;;4993278;28;20084;-63
2021/08/10 08:05:13;;;;;;;7.27;2.73;;;;;;;;;;4992955;28;20348;-62
2021/08/10 08:07:38;;;;;;;3.80;2.40;;;;;;;;;;4992341;28;20764;-63
2021/08/10 08:10:06;;;;;;;4.25;2.30;;;;;;;;;;4994342;28;20336;-62
2021/08/10 08:12:34;;;;;;;7.85;2.90;;;;;;;;;;4993866;28;20049;-62
2021/08/10 08:15:00;;;;;;;3.45;2.65;;;;;;;;;;4993873;28;20457;-62
2021/08/10 08:17:25;;;;;;;6.35;2.50;;;;;;;;;;4992149;28;20058;-63
2021/08/10 08:20:08;;;;;;;5.53;2.70;;;;;;;;;;4993827;28;20106;-63
2021/08/10 08:22:33;;;;;;;3.80;2.38;;;;;;;;;;4990608;28;20300;-62
2021/08/10 08:24:58;;;;;;;4.27;2.53;;;;;;;;;;4990617;28;20023;-63
2021/08/10 08:27:26;;;;;;;6.70;2.50;;;;;;;;;;4989337;28;20262;-63
2021/08/10 08:29:51;;;;;;;3.30;2.78;;;;;;;;;;4990602;28;20117;-62
2021/08/10 08:32:19;;;;;;;3.70;2.37;;;;;;;;;;4988126;28;20106;-62
2021/08/10 08:34:44;;;;;;;4.68;2.42;;;;;;;;;;4990930;28;20266;-63
2021/08/10 08:37:10;;;;;;;6.80;2.20;;;;;;;;;;4991414;28;20363;-62
2021/08/10 08:39:37;;;;;;;3.15;2.45;;;;;;;;;;4990583;28;20030;-62
2021/08/10 08:42:02;;;;;;;4.55;2.50;;;;;;;;;;4991952;28;20134;-62
2021/08/10 08:44:34;;;;;;;4.43;3.22;;;;;;;;;;4991137;28;20461;-62
2021/08/10 08:47:06;;;;;;;4.28;2.60;;;;;;;;;;4990060;28;20080;-62
2021/08/10 08:49:32;;;;;;;5.13;3.07;;;;;;;;;;4991731;28;20105;-62
2021/08/10 08:52:02;;;;;;;2.95;2.45;;;;;;;;;;4990511;28;20262;-62
2021/08/10 08:54:31;;;;;;;4.35;3.00;;;;;;;;;;4987353;28;20439;-60
2021/08/10 08:56:58;;;;;;;6.47;2.63;;;;;;;;;;4988845;28;20015;-61
2021/08/10 08:59:26;;;;;;;4.63;3.05;;;;;;;;;;4990792;28;20031;-62
2021/08/10 09:01:54;;;;;;;7.05;3.03;;;;;;;;;;4987102;28;20030;-62
2021/08/10 09:04:20;;;;;;;6.95;3.22;;;;;;;;;;4930043;28;68126;-61
2021/08/10 09:06:46;;;;;;;5.07;3.03;;;;;;;;;;4962313;28;20525;-62
2021/08/10 09:09:30;;;;;;;6.32;2.95;;;;;;;;;;4989743;28;20026;-62
2021/08/10 09:11:57;;;;;;;5.85;2.90;;;;;;;;;;4973426;28;20552;-62
2021/08/10 09:14:24;;;;;;;5.30;3.03;;;;;;;;;;4973487;28;20034;-62
2021/08/10 09:17:14;;;;;;;5.15;3.00;;;;;;;;;;4972582;28;20061;-62
2021/08/10 09:19:42;;;;;;;7.07;3.53;;;;;;;;;;4979480;28;20385;-62
2021/08/10 09:22:11;;;;;;;5.47;3.30;;;;;;;;;;4992480;28;20394;-63
2021/08/10 09:24:41;;;;;;;3.97;3.05;;;;;;;;;;4991569;28;20424;-62
2021/08/10 09:27:20;;;;;;;16.35;6.72;;;;;;;;;;4992210;28;20077;-62
2021/08/10 09:29:46;;;;;;;5.40;3.33;;;;;;;;;;4992740;28;20030;-62
2021/08/10 09:32:16;;;;;;;5.47;3.10;;;;;;;;;;4992624;28;20049;-62
2021/08/10 09:34:42;;;;;;;8.52;3.63;;;;;;;;;;4992821;28;20084;-62
2021/08/10 09:37:14;;;;;;;8.88;3.33;;;;;;;;;;4990925;28;20018;-62
2021/08/10 09:39:42;;;;;;;4.25;3.10;;;;;;;;;;4992387;28;20050;-62
2021/08/10 09:42:12;;;;;;;3.88;3.25;;;;;;;;;;4966166;28;20041;-62
2021/08/10 09:44:56;;;;;;;3.67;2.72;;;;;;;;;;4992476;28;20114;-62
2021/08/10 09:47:34;;;;;;;3.78;3.13;;;;;;;;;;4992054;28;20025;-62
2021/08/10 09:50:14;;;;;;;4.78;3.13;;;;;;;;;;4991026;28;20396;-62
2021/08/10 09:52:39;;;;;;;7.88;3.33;;;;;;;;;;4992450;28;20018;-62
2021/08/10 09:55:08;;;;;;;3.83;3.42;;;;;;;;;;4992199;28;20026;-62
2021/08/10 09:57:40;;;;;;;5.65;3.38;;;;;;;;;;4991987;28;20836;-62
2021/08/10 10:00:11;;;;;;;3.83;3.30;;;;;;;;;;4979890;28;20019;-62
2021/08/10 10:02:39;;;;;;;5.22;3.28;;;;;;;;;;4992015;28;20025;-62
2021/08/10 10:05:04;;;;;;;3.95;3.10;;;;;;;;;;4990944;28;20026;-62
2021/08/10 10:07:36;;;;;;;6.60;3.17;;;;;;;;;;4991583;28;20053;-62
2021/08/10 10:10:01;;;;;;;5.93;3.95;;;;;;;;;;4992356;28;20088;-65
2021/08/10 10:12:30;;;;;;;7.40;4.03;;;;;;;;;;4992056;28;20022;-65
2021/08/10 10:15:01;;;;;;;5.80;3.38;;;;;;;;;;4974261;28;20037;-65
2021/08/10 10:17:30;;;;;;;4.80;3.23;;;;;;;;;;4990343;28;20023;-65
2021/08/10 10:20:25;;;;;;;5.30;3.88;;;;;;;;;;4991994;28;20095;-65
2021/08/10 10:23:03;;;;;;;6.00;4.13;;;;;;;;;;4991341;28;20410;-65
2021/08/10 10:25:32;;;;;;;5.72;3.80;;;;;;;;;;4992440;28;20026;-65
2021/08/10 10:28:06;;;;;;;4.60;3.28;;;;;;;;;;4992643;28;20022;-65
2021/08/10 10:30:49;;;;;;;4.65;3.40;;;;;;;;;;4992624;28;20432;-65
2021/08/10 10:33:15;;;;;;;5.20;3.08;;;;;;;;;;4992695;28;20473;-65
2021/08/10 10:35:40;;;;;;;5.07;3.78;;;;;;;;;;4992715;28;20033;-65
2021/08/10 10:38:09;;;;;;;5.38;3.45;;;;;;;;;;4991419;28;20076;-65
2021/08/10 10:40:37;;;;;;;16.17;3.67;;;;;;;;;;4992604;28;20030;-65
2021/08/10 10:43:03;;;;;;;3.63;3.08;;;;;;;;;;4992455;28;20022;-65
2021/08/10 10:45:33;;;;;;;4.93;3.45;;;;;;;;;;4991431;28;20050;-65
2021/08/10 10:48:17;;;;;;;6.32;3.47;;;;;;;;;;4991246;28;20050;-65
2021/08/10 10:51:00;;;;;;;5.82;2.97;;;;;;;;;;4994841;28;20450;-65
2021/08/10 10:53:35;;;;;;;5.47;3.30;;;;;;;;;;4996276;28;20504;-65
2021/08/10 10:56:01;;;;;;;5.15;3.38;;;;;;;;;;4996213;28;20018;-63
2021/08/10 10:58:38;;;;;;;4.05;3.15;;;;;;;;;;4992711;28;20026;-62
2021/08/10 11:01:11;;;;;;;6.05;3.13;;;;;;;;;;4995120;28;20559;-63
2021/08/10 11:03:41;;;;;;;4.97;3.40;;;;;;;;;;4995170;28;20037;-63
2021/08/10 11:06:24;;;;;;;6.03;3.55;;;;;;;;;;4995262;28;20029;-63
2021/08/10 11:09:00;;;;;;;3.45;2.83;;;;;;;;;;4993130;28;20026;-63
2021/08/10 11:11:44;;;;;;;5.10;3.40;;;;;;;;;;4995159;28;20033;-62
2021/08/10 11:14:27;;;;;;;3.67;3.20;;;;;;;;;;4995314;28;20025;-63
2021/08/10 11:17:08;;;;;;;4.07;3.33;;;;;;;;;;4994966;28;20018;-62
2021/08/10 11:19:34;;;;;;;3.30;3.00;;;;;;;;;;4994626;28;20026;-62
2021/08/10 11:22:15;;;;;;;5.68;3.10;;;;;;;;;;4993661;28;20042;-63
2021/08/10 11:24:50;;;;;;;5.18;3.40;;;;;;;;;;4995058;28;20543;-63
2021/08/10 11:27:31;;;;;;;5.35;3.30;;;;;;;;;;4995438;28;20025;-63
2021/08/10 11:29:57;;;;;;;5.88;3.63;;;;;;;;;;4994404;28;20026;-63
2021/08/10 11:32:35;;;;;;;4.05;2.95;;;;;;;;;;4993650;28;20102;-63
2021/08/10 11:35:25;;;;;;;3.78;3.17;;;;;;;;;;4982831;28;20050;-63
2021/08/10 11:38:13;;;;;;;3.28;2.97;;;;;;;;;;4993123;28;20026;-63
2021/08/10 11:40:49;;;;;;;4.28;3.33;;;;;;;;;;4994695;28;20049;-63
2021/08/10 11:43:15;;;;;;;4.50;3.22;;;;;;;;;;4994493;28;20022;-63
2021/08/10 11:45:43;;;;;;;4.25;3.63;;;;;;;;;;4994744;28;20115;-63
2021/08/10 11:48:16;;;;;;;3.83;3.40;;;;;;;;;;4994076;28;20041;-63
2021/08/10 11:50:41;;;;;;;5.07;3.50;;;;;;;;;;4994619;28;20480;-63
2021/08/10 11:53:10;;;;;;;4.18;3.30;;;;;;;;;;4994469;28;20022;-63
2021/08/10 11:55:36;;;;;;;7.10;3.20;;;;;;;;;;4993401;28;20022;-63
2021/08/10 11:58:03;;;;;;;4.43;3.28;;;;;;;;;;4993974;28;20026;-63
2021/08/10 12:00:37;;;;;;;3.67;3.10;;;;;;;;;;4994155;28;20072;-63
2021/08/10 12:03:11;;;;;;;4.35;3.25;;;;;;;;;;4994303;28;20033;-63
2021/08/10 12:05:37;;;;;;;3.80;2.85;;;;;;;;;;4992969;28;20018;-63
2021/08/10 12:08:08;;;;;;;3.37;3.07;;;;;;;;;;4992423;28;20029;-63
2021/08/10 12:10:41;;;;;;;4.53;3.40;;;;;;;;;;4994110;28;20249;-62
2021/08/10 12:16:09;;;;;;;4.28;2.85;;;;;;;;;;4994080;28;20018;-63
2021/08/10 12:18:46;;;;;;;4.32;3.20;;;;;;;;;;4993431;28;20080;-63
2021/08/10 12:21:15;;;;;;;4.95;3.22;;;;;;;;;;4993894;28;20401;-63
2021/08/10 12:23:52;;;;;;;3.85;3.10;;;;;;;;;;4994177;28;20026;-63
2021/08/10 12:26:18;;;;;;;3.30;2.92;;;;;;;;;;4993777;28;20041;-63
2021/08/10 12:28:57;;;;;;;3.40;3.05;;;;;;;;;;4993516;28;20109;-63
2021/08/10 12:31:23;;;;;;;5.13;3.00;;;;;;;;;;4990635;28;20018;-62
2021/08/10 12:33:55;;;;;;;3.97;3.03;;;;;;;;;;4989269;28;20018;-62
2021/08/10 12:36:20;;;;;;;;;;;;;;;;;;4989777;28;20014;-62
2021/08/10 12:38:46;;;;;;;4.28;2.95;;;;;;;;;;4991585;28;19952;-62
2021/08/10 12:41:15;;;;;;;3.78;2.92;;;;;;;;;;4989688;28;20034;-62
2021/08/10 12:43:40;;;;;;;5.45;3.13;;;;;;;;;;4987517;28;20022;-63
2021/08/10 12:46:25;;;;;;;4.07;3.20;;;;;;;;;;4992984;28;20029;-63
2021/08/10 12:49:03;;;;;;;6.43;3.08;;;;;;;;;;4991585;28;20018;-62
2021/08/10 12:51:48;;;;;;;3.92;3.15;;;;;;;;;;4991561;28;20429;-62
2021/08/10 12:54:15;;;;;;;4.30;3.25;;;;;;;;;;4990614;28;20026;-62
2021/08/10 12:56:44;;;;;;;4.47;3.03;;;;;;;;;;4981875;28;20106;-63
2021/08/10 12:59:17;;;;;;;3.58;2.70;;;;;;;;;;4992599;28;20030;-63
2021/08/10 13:01:46;;;;;;;4.20;2.95;;;;;;;;;;4992617;28;20033;-63
2021/08/10 13:04:14;;;;;;;4.05;3.25;;;;;;;;;;4993927;28;20038;-63
2021/08/10 13:06:40;;;;;;;3.88;3.35;;;;;;;;;;4993758;28;20109;-63
2021/08/10 13:09:14;;;;;;;4.60;3.30;;;;;;;;;;4992847;28;20098;-63
2021/08/10 13:11:40;;;;;;;4.65;3.00;;;;;;;;;;4993751;28;20121;-63
2021/08/10 13:14:06;;;;;;;5.87;2.80;;;;;;;;;;4993019;28;20046;-63
2021/08/10 13:16:33;;;;;;;3.72;3.05;;;;;;;;;;4992307;28;20266;-63
2021/08/10 13:19:12;;;;;;;6.20;2.75;;;;;;;;;;4975271;28;20027;-63
2021/08/10 13:21:48;;;;;;;6.55;2.70;;;;;;;;;;4992244;28;20045;-64
2021/08/10 13:24:14;;;;;;;3.58;2.97;;;;;;;;;;4994293;28;20022;-63
2021/08/10 13:26:40;;;;;;;5.80;2.97;;;;;;;;;;4991850;28;20033;-63
2021/08/10 13:29:05;;;;;;;3.83;3.08;;;;;;;;;;4983719;28;20512;-64
2021/08/10 13:31:31;;;;;;;3.00;2.70;;;;;;;;;;4989908;28;20022;-63
2021/08/10 13:34:10;;;;;;;6.97;3.15;;;;;;;;;;4984354;28;20831;-63
2021/08/10 13:36:35;;;;;;;5.05;2.90;;;;;;;;;;4989220;28;20537;-63
2021/08/10 13:39:01;;;;;;;5.30;2.80;;;;;;;;;;4990643;28;20129;-63
2021/08/10 13:41:27;;;;;;;5.55;3.00;;;;;;;;;;4991157;28;20262;-63
2021/08/10 13:43:54;;;;;;;9.65;4.05;;;;;;;;;;4990986;28;20054;-63
2021/08/10 13:46:29;;;;;;;8.35;3.15;;;;;;;;;;4991107;28;20026;-63
2021/08/10 13:48:57;;;;;;;5.50;3.30;;;;;;;;;;4991636;28;20117;-63
2021/08/10 13:51:23;;;;;;;6.53;3.40;;;;;;;;;;4989258;28;20026;-63
2021/08/10 13:53:51;;;;;;;4.95;3.53;;;;;;;;;;4992128;28;20029;-63
2021/08/10 13:56:16;;;;;;;5.25;3.35;;;;;;;;;;4990800;28;20387;-63
2021/08/10 13:58:44;;;;;;;6.57;3.23;;;;;;;;;;4992229;28;20401;-63
2021/08/10 14:03:48;;;;;;;3.25;2.67;;;;;;;;;;4992409;28;20033;-63
2021/08/10 14:06:15;;;;;;;4.18;3.13;;;;;;;;;;4983204;28;20022;-63
2021/08/10 14:08:42;;;;;;;3.55;2.92;;;;;;;;;;4990166;28;20018;-62
2021/08/10 14:11:09;;;;;;;4.57;2.90;;;;;;;;;;4990636;28;20033;-63
2021/08/10 14:13:35;;;;;;;4.00;2.92;;;;;;;;;;4989587;28;20018;-63
2021/08/10 14:16:00;;;;;;;3.88;2.83;;;;;;;;;;4988942;28;20029;-64
2021/08/10 14:18:25;;;;;;;7.03;3.40;;;;;;;;;;4991712;28;20064;-63
2021/08/10 14:20:57;;;;;;;4.40;2.97;;;;;;;;;;4991289;28;20022;-63
2021/08/10 14:23:25;;;;;;;6.83;2.83;;;;;;;;;;4991648;28;20046;-64
2021/08/10 14:25:56;;;;;;;4.25;3.05;;;;;;;;;;4995415;28;20019;-63
2021/08/10 14:28:21;;;;;;;3.40;3.10;;;;;;;;;;4994323;28;20046;-63
2021/08/10 14:30:47;;;;;;;3.63;3.13;;;;;;;;;;4993927;28;20014;-63
2021/08/10 14:33:13;;;;;;;5.53;3.00;;;;;;;;;;4993343;28;20261;-63
2021/08/10 14:35:38;;;;;;;5.70;3.33;;;;;;;;;;4994870;28;20040;-63
2021/08/10 14:38:03;;;;;;;4.05;3.25;;;;;;;;;;4993581;28;20060;-64
2021/08/10 14:40:31;;;;;;;4.30;3.13;;;;;;;;;;4992800;28;20238;-63
2021/08/10 14:42:56;;;;;;;3.20;2.75;;;;;;;;;;4993094;28;20269;-64
2021/08/10 14:45:22;;;;;;;3.88;3.30;;;;;;;;;;4994192;28;20041;-64
2021/08/10 14:47:47;;;;;;;3.60;2.97;;;;;;;;;;4994263;28;20072;-63
2021/08/10 14:50:12;;;;;;;3.63;3.15;;;;;;;;;;4992699;28;20097;-64
2021/08/10 14:52:38;;;;;;;6.13;3.33;;;;;;;;;;4993682;28;20022;-64
2021/08/10 14:55:03;;;;;;;3.78;3.38;;;;;;;;;;4990569;28;20301;-64
2021/08/10 14:57:31;;;;;;;3.72;3.00;;;;;;;;;;4992901;28;20025;-64
2021/08/10 14:59:56;;;;;;;7.13;3.65;;;;;;;;;;4993412;28;20019;-63
2021/08/10 15:02:24;;;;;;;5.73;2.97;;;;;;;;;;4993749;28;20022;-64